Rio Das Antas, Brazil
Current Conditions -  °F | °C
As of 5:00 PM on Sunday 21 Dec 2014 (Local Time) from SBCH Reporting Station
Thunderstorm Thunderstorm  
Wind Chill: 68°   Ceiling: 300
Heat Index: 68°   Visibility: 0.68mi
Dew Point: 68°   Wind: 12mph
Humidity: 100%   Direction: 290°WNW
Pressure: 29.65"   Gusts: 23mph
Location:  26.9°S, 51.07°W
Report Text: SBCH 211900Z 29010G20KT 1100 -TSRA BR BKN003 BKN025 FEW035CB OVC090 20/20 Q1004
Loading
Personal Weather Stations






























Interactive Weather Map New forecast layout! Learn more

10-Day Weather Forecast

Advertisements
Track Severe Weather on mobile